sensor_id;sensor_type;location;lat;lon;timestamp;P1;durP1;ratioP1;P2;durP2;ratioP2
19223;SDS011;9746;47.180;9.776;2022-11-02T12:20:58;0.10;;;0.10;;
19223;SDS011;9746;47.180;9.776;2022-11-02T12:23:49;0.10;;;0.10;;
19223;SDS011;9746;47.180;9.776;2022-11-02T12:26:36;0.10;;;0.10;;
19223;SDS011;9746;47.180;9.776;2022-11-02T12:29:32;0.10;;;0.10;;
19223;SDS011;9746;47.180;9.776;2022-11-02T12:32:11;0.10;;;0.10;;
19223;SDS011;9746;47.180;9.776;2022-11-02T12:34:57;0.10;;;0.10;;
19223;SDS011;9746;47.180;9.776;2022-11-02T12:37:43;0.15;;;0.15;;
19223;SDS011;9746;47.180;9.776;2022-11-02T12:40:24;0.10;;;0.10;;
19223;SDS011;9746;47.180;9.776;2022-11-02T12:43:01;0.10;;;0.10;;
19223;SDS011;9746;47.180;9.776;2022-11-02T12:45:44;0.10;;;0.10;;
19223;SDS011;9746;47.180;9.776;2022-11-02T12:48:18;0.10;;;0.10;;
19223;SDS011;9746;47.180;9.776;2022-11-02T12:50:53;0.10;;;0.10;;
19223;SDS011;9746;47.180;9.776;2022-11-02T12:53:38;0.10;;;0.10;;
19223;SDS011;9746;47.180;9.776;2022-11-02T12:56:10;0.10;;;0.10;;
19223;SDS011;9746;47.180;9.776;2022-11-02T12:58:42;0.20;;;0.20;;
19223;SDS011;9746;47.180;9.776;2022-11-02T13:01:13;0.10;;;0.10;;
19223;SDS011;9746;47.180;9.776;2022-11-02T13:03:49;0.10;;;0.10;;
19223;SDS011;9746;47.180;9.776;2022-11-02T13:06:23;0.10;;;0.10;;
19223;SDS011;9746;47.180;9.776;2022-11-02T13:08:53;0.10;;;0.10;;
19223;SDS011;9746;47.180;9.776;2022-11-02T13:11:25;0.17;;;0.17;;
19223;SDS011;9746;47.180;9.776;2022-11-02T13:13:57;0.10;;;0.10;;
19223;SDS011;9746;47.180;9.776;2022-11-02T13:16:30;0.10;;;0.10;;
19223;SDS011;9746;47.180;9.776;2022-11-02T13:19:11;0.10;;;0.10;;
19223;SDS011;9746;47.180;9.776;2022-11-02T13:21:42;0.10;;;0.10;;
19223;SDS011;9746;47.180;9.776;2022-11-02T13:24:16;0.10;;;0.10;;
19223;SDS011;9746;47.180;9.776;2022-11-02T13:26:47;0.20;;;0.20;;
19223;SDS011;9746;47.180;9.776;2022-11-02T13:29:16;0.10;;;0.10;;
19223;SDS011;9746;47.180;9.776;2022-11-02T13:31:49;0.20;;;0.20;;
19223;SDS011;9746;47.180;9.776;2022-11-02T13:34:21;0.20;;;0.20;;
19223;SDS011;9746;47.180;9.776;2022-11-02T13:36:57;0.13;;;0.13;;
19223;SDS011;9746;47.180;9.776;2022-11-02T13:39:30;0.10;;;0.10;;
19223;SDS011;9746;47.180;9.776;2022-11-02T13:48:22;0.20;;;0.20;;
19223;SDS011;9746;47.180;9.776;2022-11-02T13:51:04;0.10;;;0.10;;
19223;SDS011;9746;47.180;9.776;2022-11-02T13:53:37;0.20;;;0.20;;
19223;SDS011;9746;47.180;9.776;2022-11-02T13:56:11;0.10;;;0.10;;
19223;SDS011;9746;47.180;9.776;2022-11-02T13:58:52;0.10;;;0.10;;
19223;SDS011;9746;47.180;9.776;2022-11-02T14:01:21;0.13;;;0.13;;
19223;SDS011;9746;47.180;9.776;2022-11-02T14:03:50;0.10;;;0.10;;
19223;SDS011;9746;47.180;9.776;2022-11-02T14:06:20;0.10;;;0.10;;
19223;SDS011;9746;47.180;9.776;2022-11-02T14:08:51;0.10;;;0.10;;
19223;SDS011;9746;47.180;9.776;2022-11-02T14:11:44;0.10;;;0.10;;
19223;SDS011;9746;47.180;9.776;2022-11-02T14:16:57;0.10;;;0.10;;
19223;SDS011;9746;47.180;9.776;2022-11-02T14:19:48;0.13;;;0.13;;
19223;SDS011;9746;47.180;9.776;2022-11-02T14:22:18;0.10;;;0.10;;
19223;SDS011;9746;47.180;9.776;2022-11-02T14:24:53;0.20;;;0.20;;
19223;SDS011;9746;47.180;9.776;2022-11-02T14:27:32;0.20;;;0.20;;
19223;SDS011;9746;47.180;9.776;2022-11-02T14:30:00;0.10;;;0.10;;
19223;SDS011;9746;47.180;9.776;2022-11-02T14:38:13;0.10;;;0.10;;
19223;SDS011;9746;47.180;9.776;2022-11-02T14:41:05;0.10;;;0.10;;
19223;SDS011;9746;47.180;9.776;2022-11-02T14:46:50;0.10;;;0.10;;
19223;SDS011;9746;47.180;9.776;2022-11-02T14:49:23;0.10;;;0.10;;
19223;SDS011;9746;47.180;9.776;2022-11-02T14:51:58;0.10;;;0.10;;
19223;SDS011;9746;47.180;9.776;2022-11-02T14:54:28;0.10;;;0.10;;
19223;SDS011;9746;47.180;9.776;2022-11-02T14:56:59;0.20;;;0.20;;
19223;SDS011;9746;47.180;9.776;2022-11-02T14:59:31;0.10;;;0.10;;
19223;SDS011;9746;47.180;9.776;2022-11-02T15:02:03;0.10;;;0.10;;
19223;SDS011;9746;47.180;9.776;2022-11-02T15:04:36;0.13;;;0.13;;
19223;SDS011;9746;47.180;9.776;2022-11-02T15:07:17;0.20;;;0.20;;
19223;SDS011;9746;47.180;9.776;2022-11-02T15:09:52;0.10;;;0.10;;
19223;SDS011;9746;47.180;9.776;2022-11-02T15:12:32;0.10;;;0.10;;
19223;SDS011;9746;47.180;9.776;2022-11-02T15:24:03;0.15;;;0.15;;
19223;SDS011;9746;47.180;9.776;2022-11-02T15:26:46;0.10;;;0.10;;
19223;SDS011;9746;47.180;9.776;2022-11-02T15:29:23;0.20;;;0.20;;
19223;SDS011;9746;47.180;9.776;2022-11-02T15:32:02;0.20;;;0.20;;
19223;SDS011;9746;47.180;9.776;2022-11-02T15:34:35;0.20;;;0.20;;
19223;SDS011;9746;47.180;9.776;2022-11-02T15:37:06;0.20;;;0.20;;
19223;SDS011;9746;47.180;9.776;2022-11-02T15:39:38;0.20;;;0.20;;
19223;SDS011;9746;47.180;9.776;2022-11-02T15:42:09;0.20;;;0.20;;
19223;SDS011;9746;47.180;9.776;2022-11-02T15:44:56;0.20;;;0.20;;
19223;SDS011;9746;47.180;9.776;2022-11-02T15:47:53;0.20;;;0.20;;
19223;SDS011;9746;47.180;9.776;2022-11-02T15:50:32;0.17;;;0.17;;
19223;SDS011;9746;47.180;9.776;2022-11-02T15:53:18;0.15;;;0.15;;
19223;SDS011;9746;47.180;9.776;2022-11-02T15:56:10;0.10;;;0.10;;
19223;SDS011;9746;47.180;9.776;2022-11-02T15:59:00;0.20;;;0.20;;
19223;SDS011;9746;47.180;9.776;2022-11-02T16:01:46;0.20;;;0.20;;
19223;SDS011;9746;47.180;9.776;2022-11-02T16:04:34;0.20;;;0.20;;
19223;SDS011;9746;47.180;9.776;2022-11-02T16:07:03;0.20;;;0.20;;
19223;SDS011;9746;47.180;9.776;2022-11-02T16:09:34;0.20;;;0.20;;
19223;SDS011;9746;47.180;9.776;2022-11-02T16:12:08;0.20;;;0.20;;
19223;SDS011;9746;47.180;9.776;2022-11-02T16:14:38;0.20;;;0.20;;
19223;SDS011;9746;47.180;9.776;2022-11-02T16:17:16;0.20;;;0.20;;
19223;SDS011;9746;47.180;9.776;2022-11-02T16:19:46;0.20;;;0.20;;
19223;SDS011;9746;47.180;9.776;2022-11-02T16:22:19;0.20;;;0.20;;
19223;SDS011;9746;47.180;9.776;2022-11-02T16:24:50;0.20;;;0.20;;
19223;SDS011;9746;47.180;9.776;2022-11-02T16:27:20;0.20;;;0.20;;
19223;SDS011;9746;47.180;9.776;2022-11-02T16:29:49;0.20;;;0.20;;
19223;SDS011;9746;47.180;9.776;2022-11-02T16:32:16;0.20;;;0.20;;
19223;SDS011;9746;47.180;9.776;2022-11-02T16:34:45;0.20;;;0.20;;
19223;SDS011;9746;47.180;9.776;2022-11-02T16:37:16;0.20;;;0.20;;
19223;SDS011;9746;47.180;9.776;2022-11-02T16:39:45;0.20;;;0.20;;
19223;SDS011;9746;47.180;9.776;2022-11-02T16:42:14;0.20;;;0.20;;
19223;SDS011;9746;47.180;9.776;2022-11-02T16:44:52;0.20;;;0.20;;
19223;SDS011;9746;47.180;9.776;2022-11-02T16:47:34;0.20;;;0.20;;
19223;SDS011;9746;47.180;9.776;2022-11-02T16:50:18;0.20;;;0.20;;
19223;SDS011;9746;47.180;9.776;2022-11-02T16:52:52;0.20;;;0.20;;
19223;SDS011;9746;47.180;9.776;2022-11-02T16:55:37;0.20;;;0.20;;
19223;SDS011;9746;47.180;9.776;2022-11-02T16:58:07;0.20;;;0.20;;
19223;SDS011;9746;47.180;9.776;2022-11-02T17:00:50;0.20;;;0.20;;
19223;SDS011;9746;47.180;9.776;2022-11-02T17:03:21;0.20;;;0.20;;
19223;SDS011;9746;47.180;9.776;2022-11-02T17:05:53;0.20;;;0.20;;
19223;SDS011;9746;47.180;9.776;2022-11-02T17:08:26;0.20;;;0.20;;
19223;SDS011;9746;47.180;9.776;2022-11-02T17:10:56;0.20;;;0.20;;
19223;SDS011;9746;47.180;9.776;2022-11-02T17:13:25;0.20;;;0.20;;
19223;SDS011;9746;47.180;9.776;2022-11-02T17:16:01;0.20;;;0.20;;
19223;SDS011;9746;47.180;9.776;2022-11-02T17:18:30;0.20;;;0.20;;
19223;SDS011;9746;47.180;9.776;2022-11-02T17:21:18;0.20;;;0.20;;
19223;SDS011;9746;47.180;9.776;2022-11-02T17:23:49;0.20;;;0.20;;
19223;SDS011;9746;47.180;9.776;2022-11-02T17:26:27;0.20;;;0.20;;
19223;SDS011;9746;47.180;9.776;2022-11-02T17:29:00;0.20;;;0.20;;
19223;SDS011;9746;47.180;9.776;2022-11-02T17:31:29;0.20;;;0.20;;
19223;SDS011;9746;47.180;9.776;2022-11-02T17:34:00;0.20;;;0.20;;
19223;SDS011;9746;47.180;9.776;2022-11-02T17:36:41;0.20;;;0.20;;
19223;SDS011;9746;47.180;9.776;2022-11-02T17:39:09;0.20;;;0.20;;
19223;SDS011;9746;47.180;9.776;2022-11-02T17:41:39;0.20;;;0.20;;
19223;SDS011;9746;47.180;9.776;2022-11-02T17:44:23;0.20;;;0.20;;
19223;SDS011;9746;47.180;9.776;2022-11-02T17:46:51;0.20;;;0.20;;
19223;SDS011;9746;47.180;9.776;2022-11-02T17:49:20;0.20;;;0.20;;
19223;SDS011;9746;47.180;9.776;2022-11-02T17:51:49;0.20;;;0.20;;
19223;SDS011;9746;47.180;9.776;2022-11-02T17:54:16;0.20;;;0.20;;
19223;SDS011;9746;47.180;9.776;2022-11-02T17:56:43;0.20;;;0.20;;
19223;SDS011;9746;47.180;9.776;2022-11-02T17:59:11;0.20;;;0.20;;
19223;SDS011;9746;47.180;9.776;2022-11-02T18:01:38;0.20;;;0.20;;
19223;SDS011;9746;47.180;9.776;2022-11-02T18:04:06;0.20;;;0.20;;
19223;SDS011;9746;47.180;9.776;2022-11-02T18:06:33;0.20;;;0.20;;
19223;SDS011;9746;47.180;9.776;2022-11-02T18:09:02;0.20;;;0.20;;
19223;SDS011;9746;47.180;9.776;2022-11-02T18:11:46;0.20;;;0.20;;
19223;SDS011;9746;47.180;9.776;2022-11-02T18:14:13;0.20;;;0.20;;
19223;SDS011;9746;47.180;9.776;2022-11-02T18:16:41;0.20;;;0.20;;
19223;SDS011;9746;47.180;9.776;2022-11-02T18:19:10;0.20;;;0.20;;
19223;SDS011;9746;47.180;9.776;2022-11-02T18:21:39;0.20;;;0.20;;
19223;SDS011;9746;47.180;9.776;2022-11-02T18:24:08;0.20;;;0.20;;
19223;SDS011;9746;47.180;9.776;2022-11-02T18:26:35;0.20;;;0.20;;
19223;SDS011;9746;47.180;9.776;2022-11-02T18:29:03;0.20;;;0.20;;
19223;SDS011;9746;47.180;9.776;2022-11-02T18:31:30;0.30;;;0.30;;
19223;SDS011;9746;47.180;9.776;2022-11-02T18:34:00;0.20;;;0.20;;
19223;SDS011;9746;47.180;9.776;2022-11-02T18:36:27;0.20;;;0.20;;
19223;SDS011;9746;47.180;9.776;2022-11-02T18:38:55;0.20;;;0.20;;
19223;SDS011;9746;47.180;9.776;2022-11-02T18:41:24;0.20;;;0.20;;
19223;SDS011;9746;47.180;9.776;2022-11-02T18:43:56;0.20;;;0.20;;
19223;SDS011;9746;47.180;9.776;2022-11-02T18:46:25;0.20;;;0.20;;
19223;SDS011;9746;47.180;9.776;2022-11-02T18:48:53;0.20;;;0.20;;
19223;SDS011;9746;47.180;9.776;2022-11-02T18:51:21;0.20;;;0.20;;
19223;SDS011;9746;47.180;9.776;2022-11-02T18:53:52;0.20;;;0.20;;
19223;SDS011;9746;47.180;9.776;2022-11-02T18:56:21;0.20;;;0.20;;
19223;SDS011;9746;47.180;9.776;2022-11-02T18:58:50;0.20;;;0.20;;
19223;SDS011;9746;47.180;9.776;2022-11-02T19:01:19;0.20;;;0.20;;
19223;SDS011;9746;47.180;9.776;2022-11-02T19:03:48;0.20;;;0.20;;
19223;SDS011;9746;47.180;9.776;2022-11-02T19:06:16;0.20;;;0.20;;
19223;SDS011;9746;47.180;9.776;2022-11-02T19:09:02;0.20;;;0.20;;
19223;SDS011;9746;47.180;9.776;2022-11-02T19:11:48;0.20;;;0.20;;
19223;SDS011;9746;47.180;9.776;2022-11-02T19:14:21;0.20;;;0.20;;
19223;SDS011;9746;47.180;9.776;2022-11-02T19:16:51;0.20;;;0.20;;
19223;SDS011;9746;47.180;9.776;2022-11-02T19:19:19;0.20;;;0.20;;
19223;SDS011;9746;47.180;9.776;2022-11-02T19:21:46;0.20;;;0.20;;
19223;SDS011;9746;47.180;9.776;2022-11-02T19:24:14;0.23;;;0.23;;
19223;SDS011;9746;47.180;9.776;2022-11-02T19:26:41;0.30;;;0.30;;
19223;SDS011;9746;47.180;9.776;2022-11-02T19:29:09;0.20;;;0.20;;
19223;SDS011;9746;47.180;9.776;2022-11-02T19:31:38;0.20;;;0.20;;
19223;SDS011;9746;47.180;9.776;2022-11-02T19:34:05;0.20;;;0.20;;
19223;SDS011;9746;47.180;9.776;2022-11-02T19:36:32;0.20;;;0.20;;
19223;SDS011;9746;47.180;9.776;2022-11-02T19:39:00;0.30;;;0.30;;
19223;SDS011;9746;47.180;9.776;2022-11-02T19:41:27;0.30;;;0.30;;
19223;SDS011;9746;47.180;9.776;2022-11-02T19:43:55;0.30;;;0.30;;
19223;SDS011;9746;47.180;9.776;2022-11-02T19:46:23;0.30;;;0.30;;
19223;SDS011;9746;47.180;9.776;2022-11-02T19:48:54;0.20;;;0.20;;
19223;SDS011;9746;47.180;9.776;2022-11-02T19:51:22;0.30;;;0.30;;
19223;SDS011;9746;47.180;9.776;2022-11-02T19:53:51;0.27;;;0.27;;
19223;SDS011;9746;47.180;9.776;2022-11-02T19:56:21;0.23;;;0.23;;
19223;SDS011;9746;47.180;9.776;2022-11-02T19:58:49;0.30;;;0.30;;
19223;SDS011;9746;47.180;9.776;2022-11-02T20:01:17;0.30;;;0.30;;
19223;SDS011;9746;47.180;9.776;2022-11-02T20:03:47;0.20;;;0.20;;
19223;SDS011;9746;47.180;9.776;2022-11-02T20:06:17;0.20;;;0.20;;
19223;SDS011;9746;47.180;9.776;2022-11-02T20:08:49;0.20;;;0.20;;
19223;SDS011;9746;47.180;9.776;2022-11-02T20:11:18;0.20;;;0.20;;
19223;SDS011;9746;47.180;9.776;2022-11-02T20:13:46;0.17;;;0.17;;
19223;SDS011;9746;47.180;9.776;2022-11-02T20:16:14;0.20;;;0.20;;
19223;SDS011;9746;47.180;9.776;2022-11-02T20:18:43;0.30;;;0.30;;
19223;SDS011;9746;47.180;9.776;2022-11-02T20:21:13;0.20;;;0.20;;
19223;SDS011;9746;47.180;9.776;2022-11-02T20:23:43;0.20;;;0.20;;
19223;SDS011;9746;47.180;9.776;2022-11-02T20:26:11;0.30;;;0.30;;
19223;SDS011;9746;47.180;9.776;2022-11-02T20:28:41;0.20;;;0.20;;
19223;SDS011;9746;47.180;9.776;2022-11-02T20:31:12;0.20;;;0.20;;
19223;SDS011;9746;47.180;9.776;2022-11-02T20:33:41;0.20;;;0.20;;
19223;SDS011;9746;47.180;9.776;2022-11-02T20:36:09;0.20;;;0.20;;
19223;SDS011;9746;47.180;9.776;2022-11-02T20:38:37;0.20;;;0.20;;
19223;SDS011;9746;47.180;9.776;2022-11-02T20:41:07;0.20;;;0.20;;
19223;SDS011;9746;47.180;9.776;2022-11-02T20:43:36;0.20;;;0.20;;
19223;SDS011;9746;47.180;9.776;2022-11-02T20:46:06;0.30;;;0.30;;
19223;SDS011;9746;47.180;9.776;2022-11-02T20:48:36;0.20;;;0.20;;
19223;SDS011;9746;47.180;9.776;2022-11-02T20:51:04;0.20;;;0.20;;
19223;SDS011;9746;47.180;9.776;2022-11-02T20:53:32;0.20;;;0.20;;
19223;SDS011;9746;47.180;9.776;2022-11-02T20:56:00;0.30;;;0.30;;
19223;SDS011;9746;47.180;9.776;2022-11-02T20:58:29;0.30;;;0.30;;
19223;SDS011;9746;47.180;9.776;2022-11-02T21:00:56;0.20;;;0.20;;
19223;SDS011;9746;47.180;9.776;2022-11-02T21:03:24;0.20;;;0.20;;
19223;SDS011;9746;47.180;9.776;2022-11-02T21:05:51;0.20;;;0.20;;
19223;SDS011;9746;47.180;9.776;2022-11-02T21:08:19;0.23;;;0.23;;
